Startpagina
METAR-TAF:

METAR-TAF

Vliegvelden :

Weeze, Duitsland

Flughafen Weeze

breedte: 51-36-09N, lengte: 006-08-32E, hoogte: 32 m

Actueel weer

Dit bericht is 21 minuten geleden gemaakt, om 02:50 UTC
Wind 8 kt uit het westzuidwesten
Temperatuur 17°C
Vochtigheid 82%
Druk 1015 hPa
Zicht 10 km of meer
geen wolken onder 1500 m en geen cumulonimbus

METAR: EDLV 240250Z 24008KT CAVOK 17/14 Q1015

Tijdstip: 05:11 (03:11 UTC)

Verwachting

Dit bericht is 10 uur en het 11 minuten geleden gemaakt, om 17:00 UTC
Verwachting geldig van 23 om 18 UTC tot 24 om 18 UTC
Wind 5 kt uit het oostzuidoosten
Zicht 10 km of meer
Verspreide wolken op 4000 ft
Wijzigt naar
van 23 om 22 UTC tot 24 om 01 UTC
Wind 6 kt uit het zuidwesten
Wijzigt naar
van 24 om 06 UTC tot 24 om 09 UTC
Wind 11 kt uit het westzuidwesten
Wijzigt naar
van 24 om 16 UTC tot 24 om 18 UTC
Wind 5 kt uit het westen

TAF: EDLV 231700Z 2318/2418 12005KT 9999 SCT040 BECMG 2322/2401 22006KT BECMG 2406/2409 24011KT BECMG 2416/2418 26005KT

Waarnemingen en weersverwachtingen van meer dan 4000 vliegvelden (METAR en TAF).

De beschikbare stations zijn de gele en rode punten op de kaart.

Ga met uw muis naar het station om de naam te zien.

Klik dan om waarnemingen en weersverwachtingen te zien.

kaart wijzigen: klik op de groene knoppen met een zwart kruis om in te zoomen, op de groene knop met een streepje om uit te zoomen of op de groene pijlen voor aangrenzende kaarten.


METAR-TAF: